Anderson, Alabama
Current Conditions -  °F | °C
As of 1:53 AM on Saturday 20 Dec 2014 (Local Time) from KMSL Reporting Station
Overcast Overcast  
Wind Chill: 39°   Ceiling: 7000
Heat Index: 39°   Visibility: 8mi
Dew Point: 31°   Wind: 3mph
Humidity: 73%   Direction: 360°N
Pressure: 30.21"   Gusts: NA
Location:  34.93°N, 87.27°W
Report Text: KMSL 200753Z AUTO 36003KT 8SM BKN070 OVC110 04/M01 A3021 RMK AO2 SLP232 T00391006
Loading
Personal Weather Stations






























Interactive Weather Map New forecast layout! Learn more

10-Day Weather Forecast

Advertisements
Track Severe Weather on mobile